首页
METAR-TAF:

METAR-TAF

机场 :

福里斯特城, 艾奥瓦州, 美国

纬度: 43-14-05N, 经度: 093-37-27W, 海拔: 375米

当前天气观测

该预报发布于30分钟前的18:35 UTC
风速12节,风向,有时为15节阵风
温度 23°C
湿度 47%
气压 1024 hPa
能見度: 16.1公里
散云层高于4500英尺

METAR: KFXY 221835Z AUTO 01012G15KT 10SM SCT045 23/11 A3024 RMK AO2

时间: 14:05 (19:05 UTC)


TAF: 丢失

超过4000个机场的气象观测和天气预报(METAR&TAF报告)。

可查询的气象台以黄色和红色小点在地图上表示。

将鼠标移到小点上方,可查看气象台名称。

然后点击查看天气观测和预报。

如需切换地图:点击带黑十字的绿色按钮放大地图;点击带横线的绿色按钮缩小地图;或者点击绿色箭头查看邻近地区的地图。


METAR-TAF: